Bei Facebook empfehlenBei Twitter postenGoogle plusPinterest

Das Wetter im Erzgebirge am 30.11.2015

Wetter und Klima am 30.11.2015 Holzhau im Erzgebirge (630m ü.NN)
Letzte gemessene Temperatur und Uhrzeit der Messung23:45:00 Uhr5.90 °C
Temperatur (Maximum / Höchstwert) und Uhrzeit der Messung02:15:00 Uhr7.00 °C
Temperatur (Minimum / Tiefstwert) und Uhrzeit der Messung17:00:000.30 °C
Errechneter Absolutwert der Temperaturschwankungen zwischen Tmin und Tmax des Tages6.70 K
Errechnete Tagesmitteltemperatur3.88854 °C
Gesamt - Niederschlag des Tages (in flüssiger Form)12.95 Liter / m²
Luftdruck (Maximum / Höchstwert) und Zeitpunkt der Messung14:00:00 Uhr1012.60 hPa
Luftdruck (Minimum / Tiefstwert) und Zeitpunkt der Messung01:45:00 Uhr1003.80 hPa
Errechneter Absolutwert der Luftdruckschwankungen des Tages8.80 hPa
Höchste gemessene Windgeschwindigkeit und Uhrzeit der Messung13:30:00 Uhr183.60 km/h
Errechnete Windhäufigkeit in Relation zu den Messwerten des Tages81.25000 %
Niedrigste Windkühle (Windchill) und Zeitpunkt der Messung13:30:00 Uhr-8.20 °C
Taupunkt (Maximum / Höchstwert) und Uhrzeit der Messung02:15:00 Uhr5.50 °C
Taupunkt (Minimum / Tiefstwert) und Uhrzeit der Messung16:30:00-1.20 °C
Anzahl der automatisch eingelesenen Messwerte 96

Detaillierte Wetter- und Klima- Messwerte für den 30.11.2015 in Holzhau im Erzgebirge (630m ü.NN)
ZeitTemperaturLuftdruckRel. LuftfeuchteWindWindrichtungWindchillTaupunktNiederschlag l/m²
23:45:005.90 °C1005.80 hPa94.00 %10.44 km/hW3.60 °C5.00 °C12.95
23:30:005.90 °C1005.90 hPa94.00 %3.96 km/hW5.90 °C5.00 °C12.95
23:15:005.80 °C1005.90 hPa94.00 %9.36 km/hWNW3.80 °C4.90 °C12.95
23:00:005.80 °C1006.00 hPa94.00 %4.68 km/hSSW5.80 °C4.90 °C12.95
22:45:005.80 °C1006.00 hPa94.00 %8.64 km/hSW3.90 °C4.90 °C12.95
22:30:005.80 °C1006.20 hPa94.00 %10.44 km/hWNW3.50 °C4.90 °C12.95
22:15:005.90 °C1006.20 hPa94.00 %9.36 km/hWNW3.90 °C5.00 °C12.95
22:00:005.80 °C1006.60 hPa94.00 %9.72 km/hNNW3.70 °C4.90 °C12.95
21:45:005.80 °C1006.50 hPa94.00 %8.64 km/hWNW3.90 °C4.90 °C12.95
21:30:005.80 °C1006.30 hPa94.00 %7.20 km/hWNW4.30 °C4.90 °C12.95
21:15:005.80 °C1006.70 hPa94.00 %8.28 km/hW4.00 °C4.90 °C12.95
21:00:005.80 °C1007.00 hPa94.00 %10.08 km/hNNW3.60 °C4.90 °C12.95
20:45:005.80 °C1006.90 hPa94.00 %10.44 km/hWNW3.50 °C4.90 °C12.95
20:30:005.90 °C1007.10 hPa94.00 %10.08 km/hW3.70 °C5.00 °C12.95
20:15:005.90 °C1007.30 hPa94.00 %9.72 km/hW3.80 °C5.00 °C12.95
20:00:005.80 °C1007.20 hPa94.00 %8.64 km/hW3.90 °C4.90 °C12.95
19:45:005.50 °C1007.50 hPa94.00 %11.16 km/hWNW3.00 °C4.60 °C12.95
19:30:005.10 °C1007.60 hPa94.00 %4.32 km/hW5.10 °C4.20 °C12.95
19:15:004.40 °C1007.70 hPa93.00 %9.36 km/hW2.10 °C3.40 °C12.95
19:00:003.80 °C1008.10 hPa93.00 %10.08 km/hSW1.20 °C2.80 °C12.43
18:45:003.10 °C1008.40 hPa93.00 %2.52 km/hWNW3.10 °C2.10 °C12.43
18:30:002.10 °C1008.60 hPa92.00 %12.24 km/hSW-1.30 °C0.90 °C11.40
18:15:001.50 °C1008.70 hPa92.00 %0.30 °C10.88
18:00:001.10 °C1008.90 hPa91.00 %-0.20 °C10.36
17:45:000.80 °C1009.10 hPa91.00 %5.40 km/hS-0.90 °C-0.50 °C10.36
17:30:000.50 °C1009.50 hPa91.00 %-0.80 °C9.84
17:15:000.40 °C1010.10 hPa91.00 %3.96 km/hSSW0.40 °C-0.90 °C9.84
17:00:000.30 °C1010.40 hPa90.00 %-1.10 °C9.84
16:45:000.30 °C1010.40 hPa90.00 %-1.10 °C9.84
16:30:000.40 °C1010.50 hPa89.00 %-1.20 °C9.84
16:15:000.80 °C1010.70 hPa88.00 %5.04 km/hWSW-0.70 °C-1.00 °C9.84
16:00:001.30 °C1010.80 hPa88.00 %2.16 km/hW1.30 °C-0.50 °C9.84
15:45:001.60 °C1011.10 hPa87.00 %3.60 km/hNNW1.60 °C-0.30 °C9.32
15:30:002.60 °C1011.40 hPa86.00 %3.24 km/hNNW2.60 °C0.50 °C9.32
15:15:003.30 °C1011.70 hPa87.00 %18.72 km/hW-0.90 °C1.30 °C9.32
15:00:003.20 °C1011.50 hPa88.00 %1.40 °C9.32
14:45:003.20 °C1012.00 hPa87.00 %7.20 km/hWNW1.30 °C1.30 °C9.32
14:30:003.40 °C1012.30 hPa87.00 %1.40 °C9.32
14:15:003.40 °C1012.50 hPa87.00 %2.52 km/hNW3.40 °C1.40 °C9.32
14:00:003.30 °C1012.60 hPa88.00 %9.72 km/hWNW0.70 °C1.50 °C9.32
13:45:003.20 °C1012.50 hPa88.00 %2.88 km/hW3.20 °C1.40 °C9.32
13:30:003.20 °C1012.60 hPa88.00 %183.60 km/hW-8.20 °C1.40 °C9.32
13:15:003.30 °C1012.60 hPa88.00 %4.32 km/hNNW3.30 °C1.50 °C9.32
13:00:003.30 °C1012.50 hPa88.00 %10.80 km/hWNW0.40 °C1.50 °C9.32
12:45:003.30 °C1012.50 hPa89.00 %23.40 km/hNW-1.50 °C1.70 °C9.32
12:30:003.40 °C1012.40 hPa89.00 %6.84 km/hW1.60 °C1.80 °C9.32
12:15:003.50 °C1012.30 hPa89.00 %21.60 km/hW-1.00 °C1.90 °C9.32
12:00:003.60 °C1012.30 hPa89.00 %3.24 km/hNW3.60 °C2.00 °C9.32
11:45:003.70 °C1012.40 hPa90.00 %4.32 km/hNNW3.70 °C2.20 °C9.32
11:30:003.60 °C1012.30 hPa91.00 %9.36 km/hNW1.10 °C2.30 °C9.32
11:15:003.80 °C1012.40 hPa91.00 %2.50 °C9.32
11:00:003.70 °C1012.30 hPa92.00 %7.20 km/hW1.80 °C2.50 °C9.32
10:45:003.80 °C1012.10 hPa92.00 %14.04 km/hN0.40 °C2.60 °C9.32
10:30:003.70 °C1012.00 hPa93.00 %2.70 °C9.32
10:15:003.40 °C1011.60 hPa93.00 %3.24 km/hW3.40 °C2.40 °C9.32
10:00:003.40 °C1011.30 hPa94.00 %2.50 °C9.32
09:45:003.30 °C1011.20 hPa94.00 %2.40 °C9.32
09:30:003.30 °C1010.90 hPa94.00 %7.92 km/hWNW1.20 °C2.40 °C9.32
09:15:003.20 °C1010.70 hPa94.00 %2.52 km/hNW3.20 °C2.30 °C9.32
09:00:003.00 °C1010.50 hPa94.00 %9.72 km/hWNW0.30 °C2.10 °C9.32
08:45:002.90 °C1010.30 hPa94.00 %2.00 °C9.32
08:30:002.90 °C1010.40 hPa94.00 %2.00 °C9.32
08:15:002.80 °C1010.30 hPa94.00 %5.76 km/hWNW1.30 °C1.90 °C9.32
08:00:002.80 °C1009.90 hPa94.00 %8.64 km/hWSW0.40 °C1.90 °C9.32
07:45:002.80 °C1009.50 hPa94.00 %11.52 km/hNW-0.30 °C1.90 °C9.32
07:30:002.80 °C1009.10 hPa94.00 %2.52 km/hNW2.80 °C1.90 °C9.32
07:15:002.80 °C1009.10 hPa94.00 %8.64 km/hN0.40 °C1.90 °C9.32
07:00:002.60 °C1008.80 hPa94.00 %1.70 °C9.32
06:45:002.60 °C1008.60 hPa94.00 %9.36 km/hNNW-0.10 °C1.70 °C8.81
06:30:002.40 °C1008.30 hPa94.00 %8.64 km/hW-0.10 °C1.50 °C8.81
06:15:002.30 °C1008.30 hPa93.00 %2.16 km/hNW2.30 °C1.30 °C8.29
06:00:002.80 °C1008.20 hPa93.00 %6.84 km/hNNW0.90 °C1.80 °C7.77
05:45:003.30 °C1007.60 hPa93.00 %8.64 km/hN1.00 °C2.30 °C6.73
05:30:003.80 °C1007.60 hPa93.00 %1.80 km/hNNW3.80 °C2.80 °C6.22
05:15:003.80 °C1007.60 hPa93.00 %7.20 km/hW2.00 °C2.80 °C6.22
05:00:003.90 °C1007.20 hPa93.00 %5.04 km/hNW2.80 °C2.90 °C6.22
04:45:004.20 °C1007.30 hPa94.00 %5.04 km/hWNW3.20 °C3.30 °C6.22
04:30:004.30 °C1007.20 hPa94.00 %11.88 km/hWNW1.40 °C3.40 °C6.22
04:15:004.20 °C1006.80 hPa94.00 %3.30 °C6.22
04:00:004.10 °C1006.40 hPa93.00 %7.92 km/hNW2.10 °C3.10 °C6.22
03:45:004.10 °C1006.20 hPa93.00 %3.10 °C6.22
03:30:003.90 °C1006.20 hPa92.00 %5.76 km/hW2.50 °C2.70 °C5.70
03:15:003.80 °C1006.00 hPa92.00 %8.28 km/hW1.60 °C2.60 °C5.18
03:00:003.90 °C1006.40 hPa91.00 %18.36 km/hW-0.10 °C2.60 °C4.14
02:45:004.20 °C1006.00 hPa90.00 %2.70 °C3.11
02:30:005.10 °C1005.60 hPa89.00 %6.12 km/hW3.80 °C3.40 °C2.07
02:15:007.00 °C1004.10 hPa90.00 %12.24 km/hNW4.60 °C5.50 °C0.52
02:00:006.90 °C1003.90 hPa90.00 %14.04 km/hW4.20 °C5.40 °C 
01:45:006.80 °C1003.80 hPa90.00 %17.64 km/hW3.60 °C5.30 °C 
01:30:006.80 °C1004.20 hPa90.00 %28.08 km/hW2.60 °C5.30 °C 
01:15:006.70 °C1004.30 hPa90.00 %7.20 km/hWNW5.30 °C5.20 °C 
01:00:006.70 °C1004.20 hPa90.00 %6.84 km/hSW5.40 °C5.20 °C 
00:45:006.80 °C1004.20 hPa90.00 %7.56 km/hW5.40 °C5.30 °C 
00:30:006.40 °C1004.50 hPa91.00 %29.52 km/hSW1.90 °C5.00 °C 
00:15:006.40 °C1004.30 hPa92.00 %5.76 km/hW5.40 °C5.20 °C 
00:00:006.30 °C1004.70 hPa92.00 %8.28 km/hW4.60 °C5.10 °C 

Permanenter Link zu dieser Seite: Wetter im Erzgebirge am 30.11.2015
Performance-Info: Die Erstellung der Seite / Statistik(en) / Tabelle(n) erforderte 5 Datenbankserver-Abfrage(n) und dauerte 95 Millisekunden. (Dieser Messwert ist von der Gesamt-Auslastung des Servers abhängig.)
Erzgebirge - Wetter | Erzgebirge - Wetter (Mobilgeräte) | Komplette Klimadatenbank